LFLL/LYS METAR and TAF weather

Enter ICAO airport designator
Station Type Date Time Source
LFLL METAR 2020/04/04 21:30 UTC NOAA

LFLL 042130Z AUTO 19013KT CAVOK 14/M00 Q1019 NOSIG


Station Type Date Time Source
LFLL Decoded METAR 2020/04/04 21:30 UTC NOAA

Lyon / Satolas, France (LFLL) 45-44N 005-05E 240M
Apr 04, 2020 - 05:30 PM EDT / 2020.04.04 2130 UTC
Wind: from the S (190 degrees) at 15 MPH (13 KT):0
Visibility: greater than 7 mile(s):0
Temperature: 57 F (14 C)
Dew Point: 32 F (0 C)
Relative Humidity: 38%
Pressure (altimeter): 30.09 in. Hg (1019 hPa)
ob: LFLL 042130Z AUTO 19013KT CAVOK 14/M00 Q1019 NOSIG
cycle: 21

Station Type Date Time Source
LFLL TAF 2020/04/04 18:25 UTC NOAA

TAF LFLL 041700Z 0418/0524 18012KT CAVOK
TEMPO 0418/0420 VRB02KT
TEMPO 0510/0517 18015G25KT

Example: see airport list